sensor_id;sensor_type;location;lat;lon;timestamp;temperature;humidity
68813;DHT22;55808;48.112;11.552;2023-02-10T00:01:16;-2.30;92.50
68813;DHT22;55808;48.112;11.552;2023-02-10T00:03:42;-2.40;92.60
68813;DHT22;55808;48.112;11.552;2023-02-10T00:06:08;-2.40;92.50
68813;DHT22;55808;48.112;11.552;2023-02-10T00:08:35;-2.40;92.90
68813;DHT22;55808;48.112;11.552;2023-02-10T00:11:03;-2.40;92.90
68813;DHT22;55808;48.112;11.552;2023-02-10T00:13:29;-2.40;93.00
68813;DHT22;55808;48.112;11.552;2023-02-10T00:15:57;-2.40;93.10
68813;DHT22;55808;48.112;11.552;2023-02-10T00:18:23;-2.50;93.30
68813;DHT22;55808;48.112;11.552;2023-02-10T00:20:48;-2.50;93.10
68813;DHT22;55808;48.112;11.552;2023-02-10T00:23:14;-2.50;93.30
68813;DHT22;55808;48.112;11.552;2023-02-10T00:25:39;-2.50;93.10
68813;DHT22;55808;48.112;11.552;2023-02-10T00:28:05;-2.40;93.20
68813;DHT22;55808;48.112;11.552;2023-02-10T00:30:33;-2.40;93.00
68813;DHT22;55808;48.112;11.552;2023-02-10T00:32:59;-2.50;93.10
68813;DHT22;55808;48.112;11.552;2023-02-10T00:35:24;-2.50;93.20
68813;DHT22;55808;48.112;11.552;2023-02-10T00:37:50;-2.50;93.50
68813;DHT22;55808;48.112;11.552;2023-02-10T00:40:16;-2.60;93.50
68813;DHT22;55808;48.112;11.552;2023-02-10T00:42:42;-2.60;93.60
68813;DHT22;55808;48.112;11.552;2023-02-10T00:45:08;-2.60;93.50
68813;DHT22;55808;48.112;11.552;2023-02-10T00:47:34;-2.60;93.40
68813;DHT22;55808;48.112;11.552;2023-02-10T00:50:00;-2.60;93.50
68813;DHT22;55808;48.112;11.552;2023-02-10T00:52:26;-2.50;93.50
68813;DHT22;55808;48.112;11.552;2023-02-10T00:54:51;-2.50;93.40
68813;DHT22;55808;48.112;11.552;2023-02-10T00:57:17;-2.60;93.80
68813;DHT22;55808;48.112;11.552;2023-02-10T00:59:43;-2.60;94.00
68813;DHT22;55808;48.112;11.552;2023-02-10T01:02:09;-2.60;94.20
68813;DHT22;55808;48.112;11.552;2023-02-10T01:04:35;-2.60;94.30
68813;DHT22;55808;48.112;11.552;2023-02-10T01:07:00;-2.60;94.30
68813;DHT22;55808;48.112;11.552;2023-02-10T01:09:26;-2.70;94.20
68813;DHT22;55808;48.112;11.552;2023-02-10T01:11:52;-2.70;94.60
68813;DHT22;55808;48.112;11.552;2023-02-10T01:14:17;-2.80;94.20
68813;DHT22;55808;48.112;11.552;2023-02-10T01:16:43;-2.70;94.50
68813;DHT22;55808;48.112;11.552;2023-02-10T01:19:09;-2.80;94.60
68813;DHT22;55808;48.112;11.552;2023-02-10T01:21:36;-2.80;95.10
68813;DHT22;55808;48.112;11.552;2023-02-10T01:24:06;-2.80;94.90
68813;DHT22;55808;48.112;11.552;2023-02-10T01:26:33;-2.80;95.00
68813;DHT22;55808;48.112;11.552;2023-02-10T01:28:59;-2.80;94.90
68813;DHT22;55808;48.112;11.552;2023-02-10T01:31:25;-2.80;94.60
68813;DHT22;55808;48.112;11.552;2023-02-10T01:33:53;-2.90;94.70
68813;DHT22;55808;48.112;11.552;2023-02-10T01:36:22;-2.90;94.90
68813;DHT22;55808;48.112;11.552;2023-02-10T01:38:48;-2.80;95.00
68813;DHT22;55808;48.112;11.552;2023-02-10T01:41:16;-2.80;94.90
68813;DHT22;55808;48.112;11.552;2023-02-10T01:43:58;-2.80;95.10
68813;DHT22;55808;48.112;11.552;2023-02-10T01:46:25;-2.90;95.10
68813;DHT22;55808;48.112;11.552;2023-02-10T01:48:52;-2.90;95.20
68813;DHT22;55808;48.112;11.552;2023-02-10T01:51:21;-2.90;95.30
68813;DHT22;55808;48.112;11.552;2023-02-10T01:53:48;-3.00;95.40
68813;DHT22;55808;48.112;11.552;2023-02-10T01:56:15;-3.00;95.60
68813;DHT22;55808;48.112;11.552;2023-02-10T01:58:41;-3.00;95.60
68813;DHT22;55808;48.112;11.552;2023-02-10T02:01:09;-3.00;95.80
68813;DHT22;55808;48.112;11.552;2023-02-10T02:03:35;-3.00;95.70
68813;DHT22;55808;48.112;11.552;2023-02-10T02:06:01;-3.00;95.70
68813;DHT22;55808;48.112;11.552;2023-02-10T02:08:28;-3.00;95.60
68813;DHT22;55808;48.112;11.552;2023-02-10T02:14:07;-3.00;95.40
68813;DHT22;55808;48.112;11.552;2023-02-10T02:36:18;-3.10;96.10
68813;DHT22;55808;48.112;11.552;2023-02-10T02:38:45;-3.20;96.10
68813;DHT22;55808;48.112;11.552;2023-02-10T02:41:11;-3.10;96.80
68813;DHT22;55808;48.112;11.552;2023-02-10T02:43:38;-3.20;96.70
68813;DHT22;55808;48.112;11.552;2023-02-10T02:46:39;-3.20;96.60
68813;DHT22;55808;48.112;11.552;2023-02-10T02:52:11;-3.20;96.50
68813;DHT22;55808;48.112;11.552;2023-02-10T02:55:02;-3.20;96.50
68813;DHT22;55808;48.112;11.552;2023-02-10T02:57:46;-3.20;96.40
68813;DHT22;55808;48.112;11.552;2023-02-10T03:00:18;-3.20;96.50
68813;DHT22;55808;48.112;11.552;2023-02-10T03:02:45;-3.20;96.30
68813;DHT22;55808;48.112;11.552;2023-02-10T03:05:18;-3.30;96.30
68813;DHT22;55808;48.112;11.552;2023-02-10T03:07:46;-3.30;96.90
68813;DHT22;55808;48.112;11.552;2023-02-10T03:10:11;-3.30;97.10
68813;DHT22;55808;48.112;11.552;2023-02-10T03:12:37;-3.30;97.00
68813;DHT22;55808;48.112;11.552;2023-02-10T03:15:03;-3.40;97.40
68813;DHT22;55808;48.112;11.552;2023-02-10T03:17:28;-3.40;97.30
68813;DHT22;55808;48.112;11.552;2023-02-10T03:19:54;-3.40;97.30
68813;DHT22;55808;48.112;11.552;2023-02-10T03:22:20;-3.50;97.10
68813;DHT22;55808;48.112;11.552;2023-02-10T03:24:45;-3.50;97.30
68813;DHT22;55808;48.112;11.552;2023-02-10T03:27:11;-3.50;97.40
68813;DHT22;55808;48.112;11.552;2023-02-10T03:29:36;-3.50;97.50
68813;DHT22;55808;48.112;11.552;2023-02-10T03:32:02;-3.50;97.50
68813;DHT22;55808;48.112;11.552;2023-02-10T03:34:29;-3.50;97.60
68813;DHT22;55808;48.112;11.552;2023-02-10T03:36:54;-3.50;97.30
68813;DHT22;55808;48.112;11.552;2023-02-10T03:39:20;-3.50;97.40
68813;DHT22;55808;48.112;11.552;2023-02-10T03:41:46;-3.50;97.40
68813;DHT22;55808;48.112;11.552;2023-02-10T03:44:11;-3.60;97.60
68813;DHT22;55808;48.112;11.552;2023-02-10T03:46:37;-3.50;97.50
68813;DHT22;55808;48.112;11.552;2023-02-10T03:49:04;-3.50;97.50
68813;DHT22;55808;48.112;11.552;2023-02-10T03:51:30;-3.50;97.50
68813;DHT22;55808;48.112;11.552;2023-02-10T03:53:55;-3.50;97.30
68813;DHT22;55808;48.112;11.552;2023-02-10T03:56:21;-3.50;97.20
68813;DHT22;55808;48.112;11.552;2023-02-10T03:58:47;-3.50;97.40
68813;DHT22;55808;48.112;11.552;2023-02-10T04:01:15;-3.50;97.00
68813;DHT22;55808;48.112;11.552;2023-02-10T04:03:41;-3.50;97.20
68813;DHT22;55808;48.112;11.552;2023-02-10T04:06:07;-3.60;97.10
68813;DHT22;55808;48.112;11.552;2023-02-10T04:08:33;-3.60;97.10
68813;DHT22;55808;48.112;11.552;2023-02-10T04:10:59;-3.70;96.80
68813;DHT22;55808;48.112;11.552;2023-02-10T04:13:24;-3.80;97.10
68813;DHT22;55808;48.112;11.552;2023-02-10T04:16:00;-3.80;97.10
68813;DHT22;55808;48.112;11.552;2023-02-10T04:18:26;-3.80;97.20
68813;DHT22;55808;48.112;11.552;2023-02-10T04:20:52;-3.80;97.40
68813;DHT22;55808;48.112;11.552;2023-02-10T04:23:17;-3.70;97.10
68813;DHT22;55808;48.112;11.552;2023-02-10T04:25:43;-3.80;97.10
68813;DHT22;55808;48.112;11.552;2023-02-10T04:28:08;-3.80;96.80
68813;DHT22;55808;48.112;11.552;2023-02-10T04:30:34;-3.90;96.80
68813;DHT22;55808;48.112;11.552;2023-02-10T04:32:59;-3.80;97.00
68813;DHT22;55808;48.112;11.552;2023-02-10T04:35:25;-3.90;96.50
68813;DHT22;55808;48.112;11.552;2023-02-10T04:37:51;-3.80;96.50
68813;DHT22;55808;48.112;11.552;2023-02-10T04:40:16;-3.80;96.50
68813;DHT22;55808;48.112;11.552;2023-02-10T04:42:42;-3.90;96.20
68813;DHT22;55808;48.112;11.552;2023-02-10T04:45:08;-3.80;96.50
68813;DHT22;55808;48.112;11.552;2023-02-10T04:47:36;-3.90;96.00
68813;DHT22;55808;48.112;11.552;2023-02-10T04:50:02;-3.80;96.30
68813;DHT22;55808;48.112;11.552;2023-02-10T04:52:29;-3.80;96.30
68813;DHT22;55808;48.112;11.552;2023-02-10T04:54:55;-3.80;96.00
68813;DHT22;55808;48.112;11.552;2023-02-10T04:57:20;-3.80;96.30
68813;DHT22;55808;48.112;11.552;2023-02-10T04:59:46;-3.80;95.80
68813;DHT22;55808;48.112;11.552;2023-02-10T05:02:12;-3.80;95.90
68813;DHT22;55808;48.112;11.552;2023-02-10T05:04:37;-3.80;96.10
68813;DHT22;55808;48.112;11.552;2023-02-10T05:07:03;-3.80;96.20
68813;DHT22;55808;48.112;11.552;2023-02-10T05:09:29;-3.90;96.00
68813;DHT22;55808;48.112;11.552;2023-02-10T05:11:54;-3.90;96.30
68813;DHT22;55808;48.112;11.552;2023-02-10T05:14:20;-3.90;96.40
68813;DHT22;55808;48.112;11.552;2023-02-10T05:16:45;-3.90;96.50
68813;DHT22;55808;48.112;11.552;2023-02-10T05:19:11;-3.80;96.50
68813;DHT22;55808;48.112;11.552;2023-02-10T05:21:37;-3.80;96.30
68813;DHT22;55808;48.112;11.552;2023-02-10T05:24:03;-3.80;96.30
68813;DHT22;55808;48.112;11.552;2023-02-10T05:26:29;-3.80;96.00
68813;DHT22;55808;48.112;11.552;2023-02-10T05:28:54;-3.90;96.60
68813;DHT22;55808;48.112;11.552;2023-02-10T05:31:20;-3.90;96.30
68813;DHT22;55808;48.112;11.552;2023-02-10T05:33:46;-3.90;96.30
68813;DHT22;55808;48.112;11.552;2023-02-10T05:36:11;-3.90;96.40
68813;DHT22;55808;48.112;11.552;2023-02-10T05:38:37;-3.90;96.50
68813;DHT22;55808;48.112;11.552;2023-02-10T05:41:03;-3.90;96.50
68813;DHT22;55808;48.112;11.552;2023-02-10T05:43:29;-3.90;96.40
68813;DHT22;55808;48.112;11.552;2023-02-10T05:45:54;-4.00;96.50
68813;DHT22;55808;48.112;11.552;2023-02-10T05:48:20;-4.00;96.70
68813;DHT22;55808;48.112;11.552;2023-02-10T05:50:50;-4.00;96.80
68813;DHT22;55808;48.112;11.552;2023-02-10T05:53:16;-4.10;96.70
68813;DHT22;55808;48.112;11.552;2023-02-10T05:55:41;-4.10;96.90
68813;DHT22;55808;48.112;11.552;2023-02-10T05:58:07;-4.10;97.10
68813;DHT22;55808;48.112;11.552;2023-02-10T06:00:32;-4.10;97.10
68813;DHT22;55808;48.112;11.552;2023-02-10T06:02:58;-4.10;97.00
68813;DHT22;55808;48.112;11.552;2023-02-10T06:05:24;-4.20;97.30
68813;DHT22;55808;48.112;11.552;2023-02-10T06:07:49;-4.20;97.20
68813;DHT22;55808;48.112;11.552;2023-02-10T06:10:15;-4.10;97.40
68813;DHT22;55808;48.112;11.552;2023-02-10T06:12:40;-4.20;97.30
68813;DHT22;55808;48.112;11.552;2023-02-10T06:15:06;-4.20;97.20
68813;DHT22;55808;48.112;11.552;2023-02-10T06:17:32;-4.20;97.40
68813;DHT22;55808;48.112;11.552;2023-02-10T06:19:58;-4.20;97.30
68813;DHT22;55808;48.112;11.552;2023-02-10T06:22:24;-4.20;97.50
68813;DHT22;55808;48.112;11.552;2023-02-10T06:24:49;-4.20;97.80
68813;DHT22;55808;48.112;11.552;2023-02-10T06:27:15;-4.20;97.70
68813;DHT22;55808;48.112;11.552;2023-02-10T06:29:42;-4.20;97.90
68813;DHT22;55808;48.112;11.552;2023-02-10T06:32:08;-4.20;97.40
68813;DHT22;55808;48.112;11.552;2023-02-10T06:34:33;-4.20;97.60
68813;DHT22;55808;48.112;11.552;2023-02-10T06:36:59;-4.20;97.40
68813;DHT22;55808;48.112;11.552;2023-02-10T06:39:24;-4.30;97.10
68813;DHT22;55808;48.112;11.552;2023-02-10T06:41:50;-4.30;97.40
68813;DHT22;55808;48.112;11.552;2023-02-10T06:44:16;-4.30;97.20
68813;DHT22;55808;48.112;11.552;2023-02-10T06:46:41;-4.20;97.40
68813;DHT22;55808;48.112;11.552;2023-02-10T06:49:07;-4.30;97.30
68813;DHT22;55808;48.112;11.552;2023-02-10T06:51:32;-4.30;97.40
68813;DHT22;55808;48.112;11.552;2023-02-10T06:53:58;-4.30;97.10
68813;DHT22;55808;48.112;11.552;2023-02-10T06:56:24;-4.20;97.20
68813;DHT22;55808;48.112;11.552;2023-02-10T06:58:49;-4.20;97.10
68813;DHT22;55808;48.112;11.552;2023-02-10T07:01:17;-4.20;97.20
68813;DHT22;55808;48.112;11.552;2023-02-10T07:03:43;-4.20;97.20
68813;DHT22;55808;48.112;11.552;2023-02-10T07:06:08;-4.20;96.90
68813;DHT22;55808;48.112;11.552;2023-02-10T07:08:34;-4.10;97.00
68813;DHT22;55808;48.112;11.552;2023-02-10T07:11:00;-4.10;97.20
68813;DHT22;55808;48.112;11.552;2023-02-10T07:13:26;-4.10;96.80
68813;DHT22;55808;48.112;11.552;2023-02-10T07:15:52;-4.00;97.10
68813;DHT22;55808;48.112;11.552;2023-02-10T07:18:17;-4.00;97.00
68813;DHT22;55808;48.112;11.552;2023-02-10T07:20:43;-4.00;96.70
68813;DHT22;55808;48.112;11.552;2023-02-10T07:23:08;-4.00;96.40
68813;DHT22;55808;48.112;11.552;2023-02-10T07:25:34;-4.00;96.80
68813;DHT22;55808;48.112;11.552;2023-02-10T07:28:00;-3.90;96.80
68813;DHT22;55808;48.112;11.552;2023-02-10T07:30:26;-3.90;96.30
68813;DHT22;55808;48.112;11.552;2023-02-10T07:32:52;-3.90;96.40
68813;DHT22;55808;48.112;11.552;2023-02-10T07:35:17;-3.80;96.40
68813;DHT22;55808;48.112;11.552;2023-02-10T07:37:43;-3.70;96.20
68813;DHT22;55808;48.112;11.552;2023-02-10T07:40:09;-3.70;95.90
68813;DHT22;55808;48.112;11.552;2023-02-10T07:42:35;-3.70;95.90
68813;DHT22;55808;48.112;11.552;2023-02-10T07:45:01;-3.60;95.90
68813;DHT22;55808;48.112;11.552;2023-02-10T07:47:27;-3.60;95.60
68813;DHT22;55808;48.112;11.552;2023-02-10T07:49:52;-3.50;95.30
68813;DHT22;55808;48.112;11.552;2023-02-10T07:52:20;-3.50;95.10
68813;DHT22;55808;48.112;11.552;2023-02-10T07:54:46;-3.40;94.90
68813;DHT22;55808;48.112;11.552;2023-02-10T07:57:12;-3.30;95.20
68813;DHT22;55808;48.112;11.552;2023-02-10T07:59:37;-3.30;95.30
68813;DHT22;55808;48.112;11.552;2023-02-10T08:02:04;-3.20;95.00
68813;DHT22;55808;48.112;11.552;2023-02-10T08:04:31;-3.20;95.00
68813;DHT22;55808;48.112;11.552;2023-02-10T08:06:57;-3.10;94.80
68813;DHT22;55808;48.112;11.552;2023-02-10T08:09:22;-3.10;94.50
68813;DHT22;55808;48.112;11.552;2023-02-10T08:11:48;-3.10;94.50
68813;DHT22;55808;48.112;11.552;2023-02-10T08:14:14;-3.00;94.20
68813;DHT22;55808;48.112;11.552;2023-02-10T08:16:39;-2.90;93.80
68813;DHT22;55808;48.112;11.552;2023-02-10T08:19:05;-2.80;93.50
68813;DHT22;55808;48.112;11.552;2023-02-10T08:21:31;-2.70;93.00
68813;DHT22;55808;48.112;11.552;2023-02-10T08:23:57;-2.70;92.80
68813;DHT22;55808;48.112;11.552;2023-02-10T08:26:23;-2.60;92.70
68813;DHT22;55808;48.112;11.552;2023-02-10T08:28:49;-2.50;92.70
68813;DHT22;55808;48.112;11.552;2023-02-10T08:31:16;-2.40;92.80
68813;DHT22;55808;48.112;11.552;2023-02-10T08:33:42;-2.30;92.70
68813;DHT22;55808;48.112;11.552;2023-02-10T08:36:10;-2.20;92.20
68813;DHT22;55808;48.112;11.552;2023-02-10T08:38:37;-2.10;92.20
68813;DHT22;55808;48.112;11.552;2023-02-10T08:41:03;-2.10;92.30
68813;DHT22;55808;48.112;11.552;2023-02-10T08:43:29;-2.10;92.60
68813;DHT22;55808;48.112;11.552;2023-02-10T08:45:56;-2.10;92.40
68813;DHT22;55808;48.112;11.552;2023-02-10T08:48:22;-1.90;91.80
68813;DHT22;55808;48.112;11.552;2023-02-10T08:50:48;-1.80;91.30
68813;DHT22;55808;48.112;11.552;2023-02-10T08:53:13;-1.70;91.60
68813;DHT22;55808;48.112;11.552;2023-02-10T08:55:39;-1.60;90.70
68813;DHT22;55808;48.112;11.552;2023-02-10T08:58:05;-1.50;90.60
68813;DHT22;55808;48.112;11.552;2023-02-10T09:00:31;-1.30;90.50
68813;DHT22;55808;48.112;11.552;2023-02-10T09:02:57;-1.10;89.30
68813;DHT22;55808;48.112;11.552;2023-02-10T09:05:23;-1.00;89.50
68813;DHT22;55808;48.112;11.552;2023-02-10T09:07:48;-1.00;88.80
68813;DHT22;55808;48.112;11.552;2023-02-10T09:10:14;-0.90;88.70
68813;DHT22;55808;48.112;11.552;2023-02-10T09:12:41;-0.80;87.70
68813;DHT22;55808;48.112;11.552;2023-02-10T09:15:07;-0.70;87.00
68813;DHT22;55808;48.112;11.552;2023-02-10T09:17:33;-0.50;86.20
68813;DHT22;55808;48.112;11.552;2023-02-10T09:20:02;-0.50;86.80
68813;DHT22;55808;48.112;11.552;2023-02-10T09:22:28;-0.60;87.10
68813;DHT22;55808;48.112;11.552;2023-02-10T09:24:54;-0.40;86.30
68813;DHT22;55808;48.112;11.552;2023-02-10T09:27:20;-0.40;86.50
68813;DHT22;55808;48.112;11.552;2023-02-10T09:29:47;-0.30;86.20
68813;DHT22;55808;48.112;11.552;2023-02-10T09:32:13;-0.20;85.60
68813;DHT22;55808;48.112;11.552;2023-02-10T09:34:39;-0.20;85.70
68813;DHT22;55808;48.112;11.552;2023-02-10T09:37:06;0.00;86.30
68813;DHT22;55808;48.112;11.552;2023-02-10T09:39:32;0.00;85.40
68813;DHT22;55808;48.112;11.552;2023-02-10T09:42:03;0.00;85.50
68813;DHT22;55808;48.112;11.552;2023-02-10T09:44:34;0.00;85.50
68813;DHT22;55808;48.112;11.552;2023-02-10T09:52:43;0.30;84.80
68813;DHT22;55808;48.112;11.552;2023-02-10T09:57:52;0.60;84.40
68813;DHT22;55808;48.112;11.552;2023-02-10T10:00:31;0.60;84.70
68813;DHT22;55808;48.112;11.552;2023-02-10T10:02:59;0.60;84.80
68813;DHT22;55808;48.112;11.552;2023-02-10T10:05:38;0.80;83.70
68813;DHT22;55808;48.112;11.552;2023-02-10T10:11:23;0.70;84.00
68813;DHT22;55808;48.112;11.552;2023-02-10T10:13:49;0.70;84.30
68813;DHT22;55808;48.112;11.552;2023-02-10T10:22:15;1.00;82.50
68813;DHT22;55808;48.112;11.552;2023-02-10T10:33:20;1.10;82.40
68813;DHT22;55808;48.112;11.552;2023-02-10T10:35:47;1.10;82.40
68813;DHT22;55808;48.112;11.552;2023-02-10T10:38:15;1.20;81.90
68813;DHT22;55808;48.112;11.552;2023-02-10T10:40:45;1.20;82.40
68813;DHT22;55808;48.112;11.552;2023-02-10T10:43:20;1.30;81.80
68813;DHT22;55808;48.112;11.552;2023-02-10T10:45:49;1.60;89.80
68813;DHT22;55808;48.112;11.552;2023-02-10T10:48:24;1.60;80.70
68813;DHT22;55808;48.112;11.552;2023-02-10T10:51:02;1.60;80.80
68813;DHT22;55808;48.112;11.552;2023-02-10T10:53:42;1.60;80.80
68813;DHT22;55808;48.112;11.552;2023-02-10T10:59:18;1.70;80.80
68813;DHT22;55808;48.112;11.552;2023-02-10T11:01:47;1.90;80.50
68813;DHT22;55808;48.112;11.552;2023-02-10T11:04:21;1.90;79.80
68813;DHT22;55808;48.112;11.552;2023-02-10T11:06:52;1.90;79.90
68813;DHT22;55808;48.112;11.552;2023-02-10T11:09:30;1.80;79.70
68813;DHT22;55808;48.112;11.552;2023-02-10T11:14:51;2.00;91.50
68813;DHT22;55808;48.112;11.552;2023-02-10T11:17:27;2.10;89.20
68813;DHT22;55808;48.112;11.552;2023-02-10T11:20:22;2.00;78.60
68813;DHT22;55808;48.112;11.552;2023-02-10T11:22:57;2.20;78.80
68813;DHT22;55808;48.112;11.552;2023-02-10T11:25:35;2.10;78.40
68813;DHT22;55808;48.112;11.552;2023-02-10T11:28:03;2.10;77.50
68813;DHT22;55808;48.112;11.552;2023-02-10T11:30:37;2.30;78.10
68813;DHT22;55808;48.112;11.552;2023-02-10T11:33:06;2.30;75.70
68813;DHT22;55808;48.112;11.552;2023-02-10T11:35:33;2.40;76.10
68813;DHT22;55808;48.112;11.552;2023-02-10T11:38:03;2.40;75.80
68813;DHT22;55808;48.112;11.552;2023-02-10T11:40:31;2.40;75.10
68813;DHT22;55808;48.112;11.552;2023-02-10T11:43:05;2.60;75.00
68813;DHT22;55808;48.112;11.552;2023-02-10T11:45:34;2.50;74.30
68813;DHT22;55808;48.112;11.552;2023-02-10T11:48:26;2.70;74.20
68813;DHT22;55808;48.112;11.552;2023-02-10T11:51:13;3.00;73.50
68813;DHT22;55808;48.112;11.552;2023-02-10T11:53:40;3.70;71.80
68813;DHT22;55808;48.112;11.552;2023-02-10T11:56:26;6.60;65.00
68813;DHT22;55808;48.112;11.552;2023-02-10T12:13:03;9.00;51.50
68813;DHT22;55808;48.112;11.552;2023-02-10T12:15:38;9.00;51.90
68813;DHT22;55808;48.112;11.552;2023-02-10T12:18:39;10.30;53.10
68813;DHT22;55808;48.112;11.552;2023-02-10T12:26:32;11.10;51.10
68813;DHT22;55808;48.112;11.552;2023-02-10T12:29:11;10.80;46.60
68813;DHT22;55808;48.112;11.552;2023-02-10T12:32:02;11.30;50.50
68813;DHT22;55808;48.112;11.552;2023-02-10T12:40:36;11.90;54.80
68813;DHT22;55808;48.112;11.552;2023-02-10T12:48:30;13.10;53.40
68813;DHT22;55808;48.112;11.552;2023-02-10T12:51:26;12.90;44.10
68813;DHT22;55808;48.112;11.552;2023-02-10T12:53:59;12.40;44.70
68813;DHT22;55808;48.112;11.552;2023-02-10T12:56:33;12.80;43.90
68813;DHT22;55808;48.112;11.552;2023-02-10T12:59:26;11.70;46.80
68813;DHT22;55808;48.112;11.552;2023-02-10T13:03:01;12.40;55.00
68813;DHT22;55808;48.112;11.552;2023-02-10T13:05:06;12.60;43.90
68813;DHT22;55808;48.112;11.552;2023-02-10T13:10:29;12.40;54.70
68813;DHT22;55808;48.112;11.552;2023-02-10T13:13:00;13.00;54.30
68813;DHT22;55808;48.112;11.552;2023-02-10T13:17:59;13.40;42.20
68813;DHT22;55808;48.112;11.552;2023-02-10T13:23:41;11.20;53.00
68813;DHT22;55808;48.112;11.552;2023-02-10T13:26:26;10.50;48.20
68813;DHT22;55808;48.112;11.552;2023-02-10T13:34:19;11.00;45.20
68813;DHT22;55808;48.112;11.552;2023-02-10T13:37:13;10.40;56.20
68813;DHT22;55808;48.112;11.552;2023-02-10T13:39:54;10.60;58.20
68813;DHT22;55808;48.112;11.552;2023-02-10T13:45:02;10.70;52.50
68813;DHT22;55808;48.112;11.552;2023-02-10T13:47:31;10.40;56.50
68813;DHT22;55808;48.112;11.552;2023-02-10T13:50:29;10.20;59.60
68813;DHT22;55808;48.112;11.552;2023-02-10T13:53:02;8.90;60.60
68813;DHT22;55808;48.112;11.552;2023-02-10T14:00:50;8.40;49.50
68813;DHT22;55808;48.112;11.552;2023-02-10T14:06:02;7.80;59.50
68813;DHT22;55808;48.112;11.552;2023-02-10T14:08:40;7.80;51.40
68813;DHT22;55808;48.112;11.552;2023-02-10T14:13:55;8.40;50.60
68813;DHT22;55808;48.112;11.552;2023-02-10T14:19:02;9.30;57.80
68813;DHT22;55808;48.112;11.552;2023-02-10T14:21:38;8.20;50.20
68813;DHT22;55808;48.112;11.552;2023-02-10T14:24:10;8.70;59.00
68813;DHT22;55808;48.112;11.552;2023-02-10T14:26:43;8.20;51.30
68813;DHT22;55808;48.112;11.552;2023-02-10T14:29:15;7.60;59.30
68813;DHT22;55808;48.112;11.552;2023-02-10T14:31:42;7.30;62.00
68813;DHT22;55808;48.112;11.552;2023-02-10T14:34:24;7.30;67.00
68813;DHT22;55808;48.112;11.552;2023-02-10T14:39:24;7.30;63.70
68813;DHT22;55808;48.112;11.552;2023-02-10T14:41:51;6.90;70.00
68813;DHT22;55808;48.112;11.552;2023-02-10T14:44:33;6.80;57.90
68813;DHT22;55808;48.112;11.552;2023-02-10T14:51:53;6.10;73.60
68813;DHT22;55808;48.112;11.552;2023-02-10T14:54:23;6.00;58.30
68813;DHT22;55808;48.112;11.552;2023-02-10T14:56:55;6.20;67.20
68813;DHT22;55808;48.112;11.552;2023-02-10T14:59:26;6.00;59.10
68813;DHT22;55808;48.112;11.552;2023-02-10T15:01:54;7.00;72.70
68813;DHT22;55808;48.112;11.552;2023-02-10T15:04:21;6.30;56.50
68813;DHT22;55808;48.112;11.552;2023-02-10T15:06:53;6.30;58.70
68813;DHT22;55808;48.112;11.552;2023-02-10T15:09:22;6.10;71.40
68813;DHT22;55808;48.112;11.552;2023-02-10T15:12:08;6.50;71.60
68813;DHT22;55808;48.112;11.552;2023-02-10T15:17:26;6.10;68.80
68813;DHT22;55808;48.112;11.552;2023-02-10T15:23:02;7.00;56.20
68813;DHT22;55808;48.112;11.552;2023-02-10T15:30:43;6.20;66.10
68813;DHT22;55808;48.112;11.552;2023-02-10T15:33:22;6.70;66.30
68813;DHT22;55808;48.112;11.552;2023-02-10T15:38:24;6.80;58.90
68813;DHT22;55808;48.112;11.552;2023-02-10T15:40:55;6.10;68.60
68813;DHT22;55808;48.112;11.552;2023-02-10T15:43:30;5.60;61.00
68813;DHT22;55808;48.112;11.552;2023-02-10T15:46:15;5.10;69.40
68813;DHT22;55808;48.112;11.552;2023-02-10T15:48:42;4.80;70.90
68813;DHT22;55808;48.112;11.552;2023-02-10T15:51:24;4.60;62.80
68813;DHT22;55808;48.112;11.552;2023-02-10T15:53:56;5.00;71.10
68813;DHT22;55808;48.112;11.552;2023-02-10T15:56:23;4.30;65.20
68813;DHT22;55808;48.112;11.552;2023-02-10T15:58:51;3.90;75.80
68813;DHT22;55808;48.112;11.552;2023-02-10T16:01:17;4.20;69.30
68813;DHT22;55808;48.112;11.552;2023-02-10T16:03:43;3.70;71.90
68813;DHT22;55808;48.112;11.552;2023-02-10T16:06:13;3.60;76.90
68813;DHT22;55808;48.112;11.552;2023-02-10T16:08:40;3.60;77.50
68813;DHT22;55808;48.112;11.552;2023-02-10T16:11:06;2.60;70.70
68813;DHT22;55808;48.112;11.552;2023-02-10T16:15:57;3.40;79.80
68813;DHT22;55808;48.112;11.552;2023-02-10T16:18:24;3.30;71.50
68813;DHT22;55808;48.112;11.552;2023-02-10T16:20:51;3.10;76.60
68813;DHT22;55808;48.112;11.552;2023-02-10T16:23:18;3.20;76.90
68813;DHT22;55808;48.112;11.552;2023-02-10T16:25:47;3.10;76.30
68813;DHT22;55808;48.112;11.552;2023-02-10T16:28:15;3.00;70.20
68813;DHT22;55808;48.112;11.552;2023-02-10T16:30:41;2.40;83.30
68813;DHT22;55808;48.112;11.552;2023-02-10T16:33:09;2.90;70.10
68813;DHT22;55808;48.112;11.552;2023-02-10T16:35:35;2.80;76.70
68813;DHT22;55808;48.112;11.552;2023-02-10T16:38:02;2.90;80.30
68813;DHT22;55808;48.112;11.552;2023-02-10T16:40:36;2.60;78.50
68813;DHT22;55808;48.112;11.552;2023-02-10T16:43:03;2.80;79.60
68813;DHT22;55808;48.112;11.552;2023-02-10T16:45:30;2.60;78.00
68813;DHT22;55808;48.112;11.552;2023-02-10T16:47:57;2.10;76.30
68813;DHT22;55808;48.112;11.552;2023-02-10T16:50:31;2.50;71.30
68813;DHT22;55808;48.112;11.552;2023-02-10T16:52:56;2.30;77.10
68813;DHT22;55808;48.112;11.552;2023-02-10T16:55:22;2.60;76.50
68813;DHT22;55808;48.112;11.552;2023-02-10T17:00:17;2.20;71.80
68813;DHT22;55808;48.112;11.552;2023-02-10T17:05:09;2.20;71.70
68813;DHT22;55808;48.112;11.552;2023-02-10T17:07:36;1.90;77.70
68813;DHT22;55808;48.112;11.552;2023-02-10T17:10:06;2.50;79.60
68813;DHT22;55808;48.112;11.552;2023-02-10T17:14:58;2.30;74.50
68813;DHT22;55808;48.112;11.552;2023-02-10T17:22:16;2.30;79.20
68813;DHT22;55808;48.112;11.552;2023-02-10T17:27:11;2.00;78.50
68813;DHT22;55808;48.112;11.552;2023-02-10T17:29:40;2.00;81.70
68813;DHT22;55808;48.112;11.552;2023-02-10T17:32:09;1.40;86.00
68813;DHT22;55808;48.112;11.552;2023-02-10T17:34:34;1.50;82.80
68813;DHT22;55808;48.112;11.552;2023-02-10T17:37:04;1.40;81.20
68813;DHT22;55808;48.112;11.552;2023-02-10T17:39:33;1.50;84.30
68813;DHT22;55808;48.112;11.552;2023-02-10T17:42:02;1.10;90.10
68813;DHT22;55808;48.112;11.552;2023-02-10T17:44:28;0.90;89.20
68813;DHT22;55808;48.112;11.552;2023-02-10T17:46:55;0.90;83.70
68813;DHT22;55808;48.112;11.552;2023-02-10T17:49:29;0.90;84.30
68813;DHT22;55808;48.112;11.552;2023-02-10T17:51:56;0.90;86.90
68813;DHT22;55808;48.112;11.552;2023-02-10T17:54:22;1.00;91.10
68813;DHT22;55808;48.112;11.552;2023-02-10T17:59:14;1.00;90.30
68813;DHT22;55808;48.112;11.552;2023-02-10T18:01:40;0.80;78.80
68813;DHT22;55808;48.112;11.552;2023-02-10T18:04:07;0.60;91.00
68813;DHT22;55808;48.112;11.552;2023-02-10T18:06:32;0.90;88.70
68813;DHT22;55808;48.112;11.552;2023-02-10T18:08:59;0.40;91.60